Terminal Aerodrome Forecast
Issued by NWS Billings, MT

Home | Current Version | Previous Version | Text Only | Print | Product List | Glossary On
Versions: 1 2 3 4 5 6 7 8 9 10 11 12 13 14 15 16 17 18 19 20 21 22 23 24 25 26 27 28 29 30 31
000
FTUS45 KBYZ 250049 AAA
TAFMLS
TAF AMD
KMLS 250049Z 2501/2524 01008KT 6SM -RASN SCT008 OVC015
      TEMPO 2501/2503 2SM -SN OVC008
     FM250300 01010KT 2SM -SN OVC008
     FM250700 35010KT 3SM -SN OVC010
     FM251700 35011KT P6SM VCSH OVC015=

USA.gov is the U.S. government's official web portal to all federal, state and local government web resources and services.